sensor_id;sensor_type;location;lat;lon;timestamp;P1;durP1;ratioP1;P2;durP2;ratioP2
22176;SDS011;11254;50.098;8.726;2023-02-28T00:01:31;4.90;;;2.42;;
22176;SDS011;11254;50.098;8.726;2023-02-28T00:03:59;4.40;;;1.98;;
22176;SDS011;11254;50.098;8.726;2023-02-28T00:06:28;5.30;;;2.50;;
22176;SDS011;11254;50.098;8.726;2023-02-28T00:08:56;7.13;;;2.58;;
22176;SDS011;11254;50.098;8.726;2023-02-28T00:11:28;4.93;;;2.58;;
22176;SDS011;11254;50.098;8.726;2023-02-28T00:13:57;4.78;;;2.45;;
22176;SDS011;11254;50.098;8.726;2023-02-28T00:16:27;6.05;;;2.53;;
22176;SDS011;11254;50.098;8.726;2023-02-28T00:18:55;5.82;;;2.70;;
22176;SDS011;11254;50.098;8.726;2023-02-28T00:21:24;5.15;;;2.67;;
22176;SDS011;11254;50.098;8.726;2023-02-28T00:23:53;7.43;;;2.50;;
22176;SDS011;11254;50.098;8.726;2023-02-28T00:26:21;6.03;;;2.30;;
22176;SDS011;11254;50.098;8.726;2023-02-28T00:28:51;6.93;;;3.05;;
22176;SDS011;11254;50.098;8.726;2023-02-28T00:31:21;5.70;;;2.88;;
22176;SDS011;11254;50.098;8.726;2023-02-28T00:33:51;6.22;;;2.72;;
22176;SDS011;11254;50.098;8.726;2023-02-28T00:36:22;5.93;;;2.80;;
22176;SDS011;11254;50.098;8.726;2023-02-28T00:38:50;7.40;;;3.08;;
22176;SDS011;11254;50.098;8.726;2023-02-28T00:41:19;5.93;;;2.65;;
22176;SDS011;11254;50.098;8.726;2023-02-28T00:43:47;4.93;;;2.60;;
22176;SDS011;11254;50.098;8.726;2023-02-28T00:46:15;7.68;;;3.60;;
22176;SDS011;11254;50.098;8.726;2023-02-28T00:48:44;5.75;;;2.90;;
22176;SDS011;11254;50.098;8.726;2023-02-28T00:51:15;5.85;;;3.35;;
22176;SDS011;11254;50.098;8.726;2023-02-28T00:53:43;6.35;;;3.05;;
22176;SDS011;11254;50.098;8.726;2023-02-28T00:56:11;6.28;;;3.20;;
22176;SDS011;11254;50.098;8.726;2023-02-28T00:58:40;7.65;;;3.65;;
22176;SDS011;11254;50.098;8.726;2023-02-28T01:01:08;7.35;;;3.10;;
22176;SDS011;11254;50.098;8.726;2023-02-28T01:03:37;8.32;;;3.40;;
22176;SDS011;11254;50.098;8.726;2023-02-28T01:06:05;7.97;;;2.88;;
22176;SDS011;11254;50.098;8.726;2023-02-28T01:08:35;7.13;;;3.72;;
22176;SDS011;11254;50.098;8.726;2023-02-28T01:11:07;7.40;;;3.63;;
22176;SDS011;11254;50.098;8.726;2023-02-28T01:13:44;6.07;;;3.30;;
22176;SDS011;11254;50.098;8.726;2023-02-28T01:16:13;7.15;;;3.65;;
22176;SDS011;11254;50.098;8.726;2023-02-28T01:18:41;7.22;;;3.40;;
22176;SDS011;11254;50.098;8.726;2023-02-28T01:21:10;7.35;;;3.05;;
22176;SDS011;11254;50.098;8.726;2023-02-28T01:23:41;6.47;;;3.15;;
22176;SDS011;11254;50.098;8.726;2023-02-28T01:26:10;7.63;;;3.90;;
22176;SDS011;11254;50.098;8.726;2023-02-28T01:28:39;7.13;;;3.08;;
22176;SDS011;11254;50.098;8.726;2023-02-28T01:31:08;8.13;;;3.50;;
22176;SDS011;11254;50.098;8.726;2023-02-28T01:33:37;6.47;;;3.30;;
22176;SDS011;11254;50.098;8.726;2023-02-28T01:36:06;8.85;;;3.40;;
22176;SDS011;11254;50.098;8.726;2023-02-28T01:38:35;5.95;;;2.92;;
22176;SDS011;11254;50.098;8.726;2023-02-28T01:41:05;7.13;;;3.47;;
22176;SDS011;11254;50.098;8.726;2023-02-28T01:46:17;7.65;;;3.97;;
22176;SDS011;11254;50.098;8.726;2023-02-28T01:48:46;9.95;;;4.03;;
22176;SDS011;11254;50.098;8.726;2023-02-28T01:51:16;8.90;;;4.03;;
22176;SDS011;11254;50.098;8.726;2023-02-28T01:53:47;7.05;;;3.67;;
22176;SDS011;11254;50.098;8.726;2023-02-28T01:56:20;8.23;;;3.85;;
22176;SDS011;11254;50.098;8.726;2023-02-28T01:58:52;7.85;;;3.88;;
22176;SDS011;11254;50.098;8.726;2023-02-28T02:01:22;6.63;;;3.47;;
22176;SDS011;11254;50.098;8.726;2023-02-28T02:03:53;6.18;;;3.33;;
22176;SDS011;11254;50.098;8.726;2023-02-28T02:06:25;7.45;;;3.60;;
22176;SDS011;11254;50.098;8.726;2023-02-28T02:08:54;6.57;;;3.22;;
22176;SDS011;11254;50.098;8.726;2023-02-28T02:11:23;6.18;;;3.25;;
22176;SDS011;11254;50.098;8.726;2023-02-28T02:14:00;8.90;;;3.50;;
22176;SDS011;11254;50.098;8.726;2023-02-28T02:16:39;5.88;;;3.22;;
22176;SDS011;11254;50.098;8.726;2023-02-28T02:19:23;6.88;;;3.53;;
22176;SDS011;11254;50.098;8.726;2023-02-28T02:22:06;6.85;;;3.22;;
22176;SDS011;11254;50.098;8.726;2023-02-28T02:27:28;6.13;;;3.10;;
22176;SDS011;11254;50.098;8.726;2023-02-28T02:30:14;9.13;;;3.35;;
22176;SDS011;11254;50.098;8.726;2023-02-28T02:32:49;7.00;;;3.60;;
22176;SDS011;11254;50.098;8.726;2023-02-28T02:35:27;6.53;;;3.25;;
22176;SDS011;11254;50.098;8.726;2023-02-28T02:37:59;6.18;;;3.03;;
22176;SDS011;11254;50.098;8.726;2023-02-28T02:40:31;5.88;;;2.60;;
22176;SDS011;11254;50.098;8.726;2023-02-28T02:43:02;7.40;;;3.30;;
22176;SDS011;11254;50.098;8.726;2023-02-28T02:45:32;6.68;;;3.00;;
22176;SDS011;11254;50.098;8.726;2023-02-28T02:48:02;5.95;;;3.05;;
22176;SDS011;11254;50.098;8.726;2023-02-28T02:50:33;7.40;;;3.38;;
22176;SDS011;11254;50.098;8.726;2023-02-28T02:53:03;6.15;;;3.17;;
22176;SDS011;11254;50.098;8.726;2023-02-28T02:55:37;7.15;;;3.20;;
22176;SDS011;11254;50.098;8.726;2023-02-28T02:58:08;4.93;;;2.38;;
22176;SDS011;11254;50.098;8.726;2023-02-28T03:00:39;6.28;;;3.00;;
22176;SDS011;11254;50.098;8.726;2023-02-28T03:03:10;6.55;;;3.20;;
22176;SDS011;11254;50.098;8.726;2023-02-28T03:05:41;5.95;;;3.20;;
22176;SDS011;11254;50.098;8.726;2023-02-28T03:08:10;7.57;;;3.10;;
22176;SDS011;11254;50.098;8.726;2023-02-28T03:10:40;7.88;;;3.40;;
22176;SDS011;11254;50.098;8.726;2023-02-28T03:13:16;7.13;;;3.15;;
22176;SDS011;11254;50.098;8.726;2023-02-28T03:15:54;6.07;;;3.10;;
22176;SDS011;11254;50.098;8.726;2023-02-28T03:18:28;5.88;;;3.00;;
22176;SDS011;11254;50.098;8.726;2023-02-28T03:21:03;6.30;;;3.15;;
22176;SDS011;11254;50.098;8.726;2023-02-28T03:23:38;7.90;;;3.47;;
22176;SDS011;11254;50.098;8.726;2023-02-28T03:26:12;6.13;;;3.00;;
22176;SDS011;11254;50.098;8.726;2023-02-28T03:28:43;6.57;;;3.30;;
22176;SDS011;11254;50.098;8.726;2023-02-28T03:31:14;7.50;;;3.42;;
22176;SDS011;11254;50.098;8.726;2023-02-28T03:33:46;5.45;;;2.80;;
22176;SDS011;11254;50.098;8.726;2023-02-28T03:36:22;6.65;;;3.33;;
22176;SDS011;11254;50.098;8.726;2023-02-28T03:38:53;6.65;;;3.13;;
22176;SDS011;11254;50.098;8.726;2023-02-28T03:41:23;9.52;;;3.17;;
22176;SDS011;11254;50.098;8.726;2023-02-28T03:43:54;6.40;;;3.10;;
22176;SDS011;11254;50.098;8.726;2023-02-28T03:46:25;7.75;;;3.33;;
22176;SDS011;11254;50.098;8.726;2023-02-28T03:49:06;6.88;;;3.15;;
22176;SDS011;11254;50.098;8.726;2023-02-28T03:51:39;5.28;;;2.85;;
22176;SDS011;11254;50.098;8.726;2023-02-28T03:54:10;6.30;;;2.95;;
22176;SDS011;11254;50.098;8.726;2023-02-28T03:56:42;6.97;;;3.15;;
22176;SDS011;11254;50.098;8.726;2023-02-28T03:59:12;7.57;;;3.00;;
22176;SDS011;11254;50.098;8.726;2023-02-28T04:01:43;7.22;;;2.67;;
22176;SDS011;11254;50.098;8.726;2023-02-28T04:04:12;5.38;;;2.83;;
22176;SDS011;11254;50.098;8.726;2023-02-28T04:06:42;6.10;;;3.10;;
22176;SDS011;11254;50.098;8.726;2023-02-28T04:09:12;7.30;;;3.25;;
22176;SDS011;11254;50.098;8.726;2023-02-28T04:11:41;8.45;;;2.85;;
22176;SDS011;11254;50.098;8.726;2023-02-28T04:14:11;6.95;;;3.25;;
22176;SDS011;11254;50.098;8.726;2023-02-28T04:16:41;8.73;;;3.40;;
22176;SDS011;11254;50.098;8.726;2023-02-28T04:19:10;7.75;;;3.17;;
22176;SDS011;11254;50.098;8.726;2023-02-28T04:21:40;7.55;;;3.30;;
22176;SDS011;11254;50.098;8.726;2023-02-28T04:24:11;6.60;;;2.78;;
22176;SDS011;11254;50.098;8.726;2023-02-28T04:26:42;5.70;;;2.80;;
22176;SDS011;11254;50.098;8.726;2023-02-28T04:29:11;6.68;;;3.08;;
22176;SDS011;11254;50.098;8.726;2023-02-28T04:31:39;6.75;;;3.00;;
22176;SDS011;11254;50.098;8.726;2023-02-28T04:34:08;8.93;;;3.47;;
22176;SDS011;11254;50.098;8.726;2023-02-28T04:36:36;9.35;;;3.55;;
22176;SDS011;11254;50.098;8.726;2023-02-28T04:39:05;7.30;;;3.30;;
22176;SDS011;11254;50.098;8.726;2023-02-28T04:41:34;6.30;;;3.10;;
22176;SDS011;11254;50.098;8.726;2023-02-28T04:44:03;7.57;;;3.25;;
22176;SDS011;11254;50.098;8.726;2023-02-28T04:46:31;6.00;;;2.78;;
22176;SDS011;11254;50.098;8.726;2023-02-28T04:49:00;8.23;;;3.00;;
22176;SDS011;11254;50.098;8.726;2023-02-28T04:51:28;5.82;;;2.55;;
22176;SDS011;11254;50.098;8.726;2023-02-28T04:53:57;5.57;;;2.90;;
22176;SDS011;11254;50.098;8.726;2023-02-28T04:56:25;5.32;;;2.72;;
22176;SDS011;11254;50.098;8.726;2023-02-28T04:58:55;5.65;;;2.80;;
22176;SDS011;11254;50.098;8.726;2023-02-28T05:01:24;6.38;;;2.55;;
22176;SDS011;11254;50.098;8.726;2023-02-28T05:03:54;7.47;;;3.40;;
22176;SDS011;11254;50.098;8.726;2023-02-28T05:06:23;8.98;;;2.88;;
22176;SDS011;11254;50.098;8.726;2023-02-28T05:08:52;7.25;;;2.80;;
22176;SDS011;11254;50.098;8.726;2023-02-28T05:11:45;4.40;;;2.50;;
22176;SDS011;11254;50.098;8.726;2023-02-28T05:14:14;5.65;;;2.20;;
22176;SDS011;11254;50.098;8.726;2023-02-28T05:16:43;4.43;;;2.28;;
22176;SDS011;11254;50.098;8.726;2023-02-28T05:19:12;5.53;;;2.45;;
22176;SDS011;11254;50.098;8.726;2023-02-28T05:21:41;7.45;;;2.60;;
22176;SDS011;11254;50.098;8.726;2023-02-28T05:24:11;4.95;;;2.50;;
22176;SDS011;11254;50.098;8.726;2023-02-28T05:26:40;5.05;;;2.42;;
22176;SDS011;11254;50.098;8.726;2023-02-28T05:29:10;4.55;;;2.13;;
22176;SDS011;11254;50.098;8.726;2023-02-28T05:31:39;4.63;;;2.22;;
22176;SDS011;11254;50.098;8.726;2023-02-28T05:34:08;4.63;;;2.03;;
22176;SDS011;11254;50.098;8.726;2023-02-28T11:23:06;7.60;;;3.10;;
22176;SDS011;11254;50.098;8.726;2023-02-28T11:25:39;6.00;;;3.28;;
22176;SDS011;11254;50.098;8.726;2023-02-28T11:28:22;7.50;;;3.40;;
22176;SDS011;11254;50.098;8.726;2023-02-28T11:30:59;9.15;;;3.88;;
22176;SDS011;11254;50.098;8.726;2023-02-28T11:33:28;9.15;;;3.47;;
22176;SDS011;11254;50.098;8.726;2023-02-28T11:36:01;8.73;;;3.88;;
22176;SDS011;11254;50.098;8.726;2023-02-28T11:38:31;8.80;;;3.63;;
22176;SDS011;11254;50.098;8.726;2023-02-28T11:41:05;8.77;;;3.47;;
22176;SDS011;11254;50.098;8.726;2023-02-28T11:43:38;9.80;;;3.88;;
22176;SDS011;11254;50.098;8.726;2023-02-28T11:46:13;9.48;;;3.65;;
22176;SDS011;11254;50.098;8.726;2023-02-28T11:48:46;8.02;;;4.03;;
22176;SDS011;11254;50.098;8.726;2023-02-28T11:51:21;7.60;;;3.97;;
22176;SDS011;11254;50.098;8.726;2023-02-28T11:53:58;7.25;;;3.45;;
22176;SDS011;11254;50.098;8.726;2023-02-28T11:56:31;8.25;;;3.60;;
22176;SDS011;11254;50.098;8.726;2023-02-28T11:59:04;7.57;;;3.90;;
22176;SDS011;11254;50.098;8.726;2023-02-28T12:01:38;9.32;;;3.72;;
22176;SDS011;11254;50.098;8.726;2023-02-28T12:04:17;7.10;;;3.80;;
22176;SDS011;11254;50.098;8.726;2023-02-28T12:06:50;8.75;;;3.60;;
22176;SDS011;11254;50.098;8.726;2023-02-28T12:09:29;7.97;;;4.20;;
22176;SDS011;11254;50.098;8.726;2023-02-28T12:12:01;7.70;;;4.22;;
22176;SDS011;11254;50.098;8.726;2023-02-28T12:14:47;7.25;;;4.05;;
22176;SDS011;11254;50.098;8.726;2023-02-28T12:17:27;8.75;;;3.90;;
22176;SDS011;11254;50.098;8.726;2023-02-28T12:20:02;8.27;;;4.10;;
22176;SDS011;11254;50.098;8.726;2023-02-28T12:22:33;7.90;;;4.38;;
22176;SDS011;11254;50.098;8.726;2023-02-28T12:25:21;8.25;;;3.85;;
22176;SDS011;11254;50.098;8.726;2023-02-28T12:27:50;8.18;;;4.00;;
22176;SDS011;11254;50.098;8.726;2023-02-28T12:30:21;9.20;;;3.83;;
22176;SDS011;11254;50.098;8.726;2023-02-28T12:32:51;11.02;;;4.05;;
22176;SDS011;11254;50.098;8.726;2023-02-28T12:35:22;9.13;;;4.60;;
22176;SDS011;11254;50.098;8.726;2023-02-28T12:37:54;7.68;;;3.80;;
22176;SDS011;11254;50.098;8.726;2023-02-28T12:40:27;9.93;;;4.20;;
22176;SDS011;11254;50.098;8.726;2023-02-28T12:42:58;8.70;;;4.50;;
22176;SDS011;11254;50.098;8.726;2023-02-28T12:45:31;8.98;;;4.35;;
22176;SDS011;11254;50.098;8.726;2023-02-28T12:48:04;9.30;;;4.93;;
22176;SDS011;11254;50.098;8.726;2023-02-28T12:50:34;9.43;;;4.50;;
22176;SDS011;11254;50.098;8.726;2023-02-28T12:53:03;9.30;;;4.78;;
22176;SDS011;11254;50.098;8.726;2023-02-28T12:55:38;9.10;;;4.60;;
22176;SDS011;11254;50.098;8.726;2023-02-28T12:58:10;7.95;;;4.47;;
22176;SDS011;11254;50.098;8.726;2023-02-28T13:00:45;9.38;;;4.60;;
22176;SDS011;11254;50.098;8.726;2023-02-28T13:03:28;11.05;;;4.65;;
22176;SDS011;11254;50.098;8.726;2023-02-28T13:08:59;9.55;;;5.00;;
22176;SDS011;11254;50.098;8.726;2023-02-28T13:11:31;8.82;;;4.40;;
22176;SDS011;11254;50.098;8.726;2023-02-28T13:14:01;10.05;;;4.95;;
22176;SDS011;11254;50.098;8.726;2023-02-28T13:16:51;7.68;;;4.18;;
22176;SDS011;11254;50.098;8.726;2023-02-28T13:19:21;8.95;;;4.75;;
22176;SDS011;11254;50.098;8.726;2023-02-28T13:21:50;9.88;;;4.38;;
22176;SDS011;11254;50.098;8.726;2023-02-28T13:24:37;8.27;;;4.38;;
22176;SDS011;11254;50.098;8.726;2023-02-28T13:27:21;8.30;;;4.47;;
22176;SDS011;11254;50.098;8.726;2023-02-28T13:29:52;9.02;;;4.65;;
22176;SDS011;11254;50.098;8.726;2023-02-28T13:32:31;8.82;;;4.82;;
22176;SDS011;11254;50.098;8.726;2023-02-28T13:44:01;11.23;;;5.18;;
22176;SDS011;11254;50.098;8.726;2023-02-28T13:46:31;10.20;;;4.97;;
22176;SDS011;11254;50.098;8.726;2023-02-28T13:51:43;8.25;;;4.45;;
22176;SDS011;11254;50.098;8.726;2023-02-28T13:54:16;9.10;;;4.70;;
22176;SDS011;11254;50.098;8.726;2023-02-28T13:56:48;9.75;;;4.68;;
22176;SDS011;11254;50.098;8.726;2023-02-28T13:59:22;9.98;;;4.80;;
22176;SDS011;11254;50.098;8.726;2023-02-28T14:01:57;9.48;;;4.68;;
22176;SDS011;11254;50.098;8.726;2023-02-28T14:04:39;8.98;;;4.60;;
22176;SDS011;11254;50.098;8.726;2023-02-28T14:07:16;10.02;;;4.82;;
22176;SDS011;11254;50.098;8.726;2023-02-28T14:09:45;10.80;;;5.30;;
22176;SDS011;11254;50.098;8.726;2023-02-28T14:15:03;9.07;;;4.85;;
22176;SDS011;11254;50.098;8.726;2023-02-28T14:17:32;9.93;;;4.88;;
22176;SDS011;11254;50.098;8.726;2023-02-28T14:20:00;8.10;;;4.63;;
22176;SDS011;11254;50.098;8.726;2023-02-28T14:22:38;11.07;;;4.88;;
22176;SDS011;11254;50.098;8.726;2023-02-28T14:25:10;8.38;;;4.93;;
22176;SDS011;11254;50.098;8.726;2023-02-28T14:27:41;8.98;;;4.82;;
22176;SDS011;11254;50.098;8.726;2023-02-28T14:30:29;9.98;;;5.15;;
22176;SDS011;11254;50.098;8.726;2023-02-28T14:33:08;12.23;;;4.70;;
22176;SDS011;11254;50.098;8.726;2023-02-28T14:35:42;9.52;;;5.20;;
22176;SDS011;11254;50.098;8.726;2023-02-28T14:38:13;10.77;;;5.18;;
22176;SDS011;11254;50.098;8.726;2023-02-28T14:40:43;10.25;;;4.93;;
22176;SDS011;11254;50.098;8.726;2023-02-28T14:43:18;9.13;;;4.68;;
22176;SDS011;11254;50.098;8.726;2023-02-28T14:45:50;11.70;;;5.43;;
22176;SDS011;11254;50.098;8.726;2023-02-28T14:48:19;10.32;;;5.28;;
22176;SDS011;11254;50.098;8.726;2023-02-28T14:50:52;11.88;;;5.53;;
22176;SDS011;11254;50.098;8.726;2023-02-28T14:53:21;10.52;;;5.07;;
22176;SDS011;11254;50.098;8.726;2023-02-28T14:55:50;10.88;;;4.78;;
22176;SDS011;11254;50.098;8.726;2023-02-28T14:58:23;9.57;;;4.88;;
22176;SDS011;11254;50.098;8.726;2023-02-28T15:00:54;9.35;;;5.13;;
22176;SDS011;11254;50.098;8.726;2023-02-28T15:03:24;11.05;;;4.78;;
22176;SDS011;11254;50.098;8.726;2023-02-28T15:05:53;10.38;;;5.00;;
22176;SDS011;11254;50.098;8.726;2023-02-28T15:08:22;12.18;;;5.60;;
22176;SDS011;11254;50.098;8.726;2023-02-28T15:10:53;11.10;;;5.32;;
22176;SDS011;11254;50.098;8.726;2023-02-28T15:13:22;10.70;;;4.88;;
22176;SDS011;11254;50.098;8.726;2023-02-28T15:15:53;9.50;;;4.53;;
22176;SDS011;11254;50.098;8.726;2023-02-28T15:18:31;8.98;;;4.80;;
22176;SDS011;11254;50.098;8.726;2023-02-28T15:21:02;9.88;;;4.90;;
22176;SDS011;11254;50.098;8.726;2023-02-28T15:23:31;11.02;;;5.22;;
22176;SDS011;11254;50.098;8.726;2023-02-28T15:26:01;11.48;;;5.70;;
22176;SDS011;11254;50.098;8.726;2023-02-28T15:28:30;8.98;;;4.78;;
22176;SDS011;11254;50.098;8.726;2023-02-28T15:31:00;12.00;;;5.25;;
22176;SDS011;11254;50.098;8.726;2023-02-28T15:33:30;9.50;;;4.80;;
22176;SDS011;11254;50.098;8.726;2023-02-28T15:36:12;12.43;;;5.50;;
22176;SDS011;11254;50.098;8.726;2023-02-28T15:38:41;11.40;;;5.40;;
22176;SDS011;11254;50.098;8.726;2023-02-28T15:41:21;10.73;;;4.82;;
22176;SDS011;11254;50.098;8.726;2023-02-28T15:43:49;9.23;;;4.72;;
22176;SDS011;11254;50.098;8.726;2023-02-28T15:46:39;9.70;;;5.03;;
22176;SDS011;11254;50.098;8.726;2023-02-28T15:49:12;11.07;;;5.03;;
22176;SDS011;11254;50.098;8.726;2023-02-28T15:51:44;10.38;;;4.93;;
22176;SDS011;11254;50.098;8.726;2023-02-28T15:54:14;7.82;;;4.38;;
22176;SDS011;11254;50.098;8.726;2023-02-28T15:56:44;12.35;;;4.90;;
22176;SDS011;11254;50.098;8.726;2023-02-28T15:59:14;9.90;;;4.53;;
22176;SDS011;11254;50.098;8.726;2023-02-28T16:01:45;9.38;;;4.93;;
22176;SDS011;11254;50.098;8.726;2023-02-28T16:04:17;11.57;;;5.35;;
22176;SDS011;11254;50.098;8.726;2023-02-28T16:06:46;9.57;;;5.10;;
22176;SDS011;11254;50.098;8.726;2023-02-28T16:09:15;10.38;;;5.45;;
22176;SDS011;11254;50.098;8.726;2023-02-28T16:11:44;10.70;;;4.75;;
22176;SDS011;11254;50.098;8.726;2023-02-28T16:14:14;9.60;;;5.00;;
22176;SDS011;11254;50.098;8.726;2023-02-28T16:16:46;11.20;;;5.05;;
22176;SDS011;11254;50.098;8.726;2023-02-28T16:19:14;9.70;;;4.75;;
22176;SDS011;11254;50.098;8.726;2023-02-28T16:21:43;10.25;;;5.10;;
22176;SDS011;11254;50.098;8.726;2023-02-28T16:24:11;11.90;;;5.55;;
22176;SDS011;11254;50.098;8.726;2023-02-28T16:26:40;11.05;;;5.40;;
22176;SDS011;11254;50.098;8.726;2023-02-28T16:29:09;11.00;;;4.97;;
22176;SDS011;11254;50.098;8.726;2023-02-28T16:31:40;12.43;;;5.45;;
22176;SDS011;11254;50.098;8.726;2023-02-28T16:34:10;10.70;;;5.07;;
22176;SDS011;11254;50.098;8.726;2023-02-28T16:36:39;10.63;;;5.38;;
22176;SDS011;11254;50.098;8.726;2023-02-28T16:39:07;11.23;;;5.57;;
22176;SDS011;11254;50.098;8.726;2023-02-28T16:41:36;10.88;;;5.53;;
22176;SDS011;11254;50.098;8.726;2023-02-28T16:44:04;9.00;;;4.63;;
22176;SDS011;11254;50.098;8.726;2023-02-28T16:46:38;9.95;;;4.60;;
22176;SDS011;11254;50.098;8.726;2023-02-28T16:49:08;18.42;;;7.80;;
22176;SDS011;11254;50.098;8.726;2023-02-28T16:51:39;8.75;;;4.88;;
22176;SDS011;11254;50.098;8.726;2023-02-28T16:54:08;11.35;;;4.85;;
22176;SDS011;11254;50.098;8.726;2023-02-28T16:56:36;9.65;;;4.70;;
22176;SDS011;11254;50.098;8.726;2023-02-28T16:59:07;9.35;;;4.78;;
22176;SDS011;11254;50.098;8.726;2023-02-28T17:01:36;14.32;;;5.65;;
22176;SDS011;11254;50.098;8.726;2023-02-28T17:04:05;10.57;;;4.85;;
22176;SDS011;11254;50.098;8.726;2023-02-28T17:06:33;11.48;;;5.32;;
22176;SDS011;11254;50.098;8.726;2023-02-28T17:09:03;9.70;;;5.05;;
22176;SDS011;11254;50.098;8.726;2023-02-28T17:11:35;8.43;;;4.65;;
22176;SDS011;11254;50.098;8.726;2023-02-28T17:14:03;9.55;;;4.93;;
22176;SDS011;11254;50.098;8.726;2023-02-28T17:16:32;12.50;;;5.80;;
22176;SDS011;11254;50.098;8.726;2023-02-28T17:19:01;18.10;;;6.30;;
22176;SDS011;11254;50.098;8.726;2023-02-28T23:22:25;18.48;;;8.30;;
22176;SDS011;11254;50.098;8.726;2023-02-28T23:24:54;18.65;;;7.43;;
22176;SDS011;11254;50.098;8.726;2023-02-28T23:27:22;19.65;;;8.25;;
22176;SDS011;11254;50.098;8.726;2023-02-28T23:29:50;17.10;;;8.18;;
22176;SDS011;11254;50.098;8.726;2023-02-28T23:32:19;21.33;;;8.68;;
22176;SDS011;11254;50.098;8.726;2023-02-28T23:34:47;18.33;;;8.48;;
22176;SDS011;11254;50.098;8.726;2023-02-28T23:37:15;17.10;;;7.50;;
22176;SDS011;11254;50.098;8.726;2023-02-28T23:39:45;15.73;;;7.43;;
22176;SDS011;11254;50.098;8.726;2023-02-28T23:42:14;15.95;;;7.68;;
22176;SDS011;11254;50.098;8.726;2023-02-28T23:44:42;16.50;;;7.85;;
22176;SDS011;11254;50.098;8.726;2023-02-28T23:47:10;21.13;;;8.05;;
22176;SDS011;11254;50.098;8.726;2023-02-28T23:49:39;17.42;;;8.43;;
22176;SDS011;11254;50.098;8.726;2023-02-28T23:52:08;18.10;;;8.25;;
22176;SDS011;11254;50.098;8.726;2023-02-28T23:54:37;17.42;;;7.30;;
22176;SDS011;11254;50.098;8.726;2023-02-28T23:57:06;17.33;;;7.47;;
22176;SDS011;11254;50.098;8.726;2023-02-28T23:59:35;17.13;;;7.70;;
